Time;durP1;ratioP1;P1;durP2;ratioP2;P2;SDS_P1;SDS_P2;PMS_P1;PMS_P2;Temp;Humidity;BMP_temperature;BMP_pressure;BME280_temperature;BME280_humidity;BME280_pressure;Samples;Min_cycle;Max_cycle;Signal;HPM_P1;HPM_P2
2022/05/31 00:01:30;;;;;;;36.50;25.12;;;26.70;99.90;;;;;;1854214;77;21179;-80
2022/05/31 00:04:01;;;;;;;25.92;17.50;;;26.50;99.90;;;;;;1848131;77;21164;-80
2022/05/31 00:06:32;;;;;;;22.42;16.27;;;26.60;99.90;;;;;;1827567;77;21167;-82
2022/05/31 00:09:04;;;;;;;32.30;23.10;;;26.70;99.90;;;;;;1847209;76;21206;-80
2022/05/31 00:11:38;;;;;;;31.30;20.85;;;26.50;99.90;;;;;;1847313;77;21145;-80
2022/05/31 00:14:10;;;;;;;35.52;23.95;;;26.70;99.90;;;;;;1846664;77;21198;-80
2022/05/31 00:16:42;;;;;;;25.08;18.25;;;26.70;99.90;;;;;;1847153;77;21087;-81
2022/05/31 00:19:14;;;;;;;27.87;18.25;;;26.70;99.90;;;;;;1842616;77;21068;-80
2022/05/31 00:21:47;;;;;;;22.07;15.50;;;26.90;99.90;;;;;;1857672;77;21199;-82
2022/05/31 00:24:20;;;;;;;21.85;15.55;;;26.90;99.90;;;;;;1848218;77;21139;-81
2022/05/31 00:26:54;;;;;;;22.58;14.98;;;27.00;99.90;;;;;;1850317;77;21192;-78
2022/05/31 00:29:30;;;;;;;26.07;15.03;;;26.90;99.90;;;;;;1814021;79;21720;-86
2022/05/31 00:32:05;;;;;;;21.68;15.80;;;26.90;99.90;;;;;;1789492;79;21200;-85
2022/05/31 00:34:39;;;;;;;23.20;16.87;;;26.90;99.90;;;;;;1809301;78;21170;-85
2022/05/31 00:37:10;;;;;;;27.85;16.12;;;26.90;99.90;;;;;;1809140;79;21522;-85
2022/05/31 00:39:42;;;;;;;25.30;15.95;;;26.90;99.90;;;;;;1809358;79;21571;-84
2022/05/31 00:42:16;;;;;;;25.15;16.37;;;26.90;99.90;;;;;;1809083;78;21211;-85
2022/05/31 00:44:48;;;;;;;27.80;15.90;;;27.10;99.90;;;;;;1807133;79;21147;-85
2022/05/31 00:47:23;;;;;;;26.50;16.42;;;27.00;99.90;;;;;;1842652;76;21177;-82
2022/05/31 00:49:56;;;;;;;22.87;15.35;;;27.20;99.90;;;;;;1832162;76;21243;-86
2022/05/31 00:52:29;;;;;;;22.67;14.58;;;27.30;99.90;;;;;;1839858;76;21237;-83
2022/05/31 00:55:04;;;;;;;21.97;15.20;;;27.00;99.90;;;;;;1820468;78;21103;-82
2022/05/31 00:57:37;;;;;;;28.10;14.07;;;27.30;99.90;;;;;;1847006;76;21320;-85
2022/05/31 01:00:10;;;;;;;21.40;14.00;;;27.10;99.90;;;;;;1878076;76;21188;-84
2022/05/31 01:02:44;;;;;;;23.20;13.45;;;27.20;99.90;;;;;;1778168;80;21228;-85
2022/05/31 01:05:16;;;;;;;22.07;14.13;;;27.20;99.90;;;;;;1865960;76;21511;-84
2022/05/31 01:07:47;;;;;;;19.80;13.22;;;27.20;99.90;;;;;;1869381;76;21615;-87
2022/05/31 01:10:18;;;;;;;23.00;13.32;;;27.50;99.90;;;;;;1883792;76;21585;-84
2022/05/31 01:12:51;;;;;;;20.62;13.22;;;27.40;99.90;;;;;;1883315;76;21791;-85
2022/05/31 01:15:22;;;;;;;20.45;13.08;;;27.30;99.90;;;;;;1850682;76;21172;-84
2022/05/31 01:17:53;;;;;;;23.75;13.80;;;27.40;99.90;;;;;;1854234;76;21123;-83
2022/05/31 01:20:26;;;;;;;20.80;12.78;;;27.30;99.90;;;;;;1865185;76;21865;-85
2022/05/31 01:23:00;;;;;;;19.57;13.15;;;27.40;99.90;;;;;;1831755;77;21258;-84
2022/05/31 01:25:33;;;;;;;21.95;11.97;;;27.70;99.90;;;;;;1820304;78;21134;-85
2022/05/31 01:28:07;;;;;;;16.32;12.73;;;27.70;99.90;;;;;;1831601;77;21123;-84
2022/05/31 01:30:40;;;;;;;17.35;12.82;;;27.60;99.90;;;;;;1829480;77;21235;-85
2022/05/31 01:33:13;;;;;;;20.52;12.03;;;27.70;99.90;;;;;;1806745;78;21134;-84
2022/05/31 01:35:44;;;;;;;20.68;12.75;;;27.90;99.90;;;;;;1802238;78;21231;-84
2022/05/31 01:38:18;;;;;;;17.60;11.60;;;27.70;99.90;;;;;;1801988;78;21243;-85
2022/05/31 01:40:51;;;;;;;18.62;12.50;;;27.80;99.90;;;;;;1788535;79;21133;-85
2022/05/31 01:43:25;;;;;;;16.07;11.80;;;27.80;99.90;;;;;;1779586;79;21274;-85
2022/05/31 01:45:59;;;;;;;16.23;12.33;;;27.90;99.90;;;;;;1865492;76;21185;-84
2022/05/31 01:48:33;;;;;;;17.48;11.33;;;28.10;99.90;;;;;;1862572;76;21198;-82
2022/05/31 01:51:04;;;;;;;16.97;11.22;;;28.10;99.90;;;;;;1831344;78;21110;-84
2022/05/31 01:53:36;;;;;;;19.87;11.55;;;28.00;99.90;;;;;;1805259;78;21735;-83
2022/05/31 01:56:11;;;;;;;18.17;10.80;;;28.30;99.90;;;;;;1814699;77;21548;-85
2022/05/31 01:58:47;;;;;;;17.30;11.03;;;28.40;99.90;;;;;;1810007;78;21148;-84
2022/05/31 02:01:18;;;;;;;15.35;10.68;;;28.40;99.90;;;;;;1825075;78;21164;-85
2022/05/31 02:03:49;;;;;;;17.20;11.60;;;28.30;99.90;;;;;;1798198;79;21158;-84
2022/05/31 02:06:22;;;;;;;23.90;12.20;;;28.20;99.90;;;;;;1825498;77;21695;-84
2022/05/31 02:08:54;;;;;;;21.07;12.18;;;28.50;99.90;;;;;;1817044;79;21876;-81
2022/05/31 02:11:26;;;;;;;17.90;11.57;;;28.40;99.90;;;;;;1794534;79;21138;-84
2022/05/31 02:13:58;;;;;;;19.12;12.58;;;28.30;99.90;;;;;;1782671;80;21151;-83
2022/05/31 02:16:30;;;;;;;19.82;12.20;;;28.60;99.90;;;;;;1806711;77;21156;-83
2022/05/31 02:21:37;;;;;;;19.65;11.53;;;28.30;99.90;;;;;;1826444;76;21671;-83
2022/05/31 02:24:09;;;;;;;19.73;11.35;;;28.50;99.90;;;;;;1874910;75;21072;-84
2022/05/31 02:26:41;;;;;;;17.80;11.83;;;28.50;99.90;;;;;;1871940;76;21145;-83
2022/05/31 02:29:14;;;;;;;19.75;12.63;;;28.50;99.90;;;;;;1856648;75;21098;-83
2022/05/31 02:31:47;;;;;;;22.50;13.05;;;28.70;99.90;;;;;;1869323;77;21149;-82
2022/05/31 02:34:21;;;;;;;20.65;13.60;;;28.80;99.90;;;;;;1863242;76;21140;-84
2022/05/31 02:36:53;;;;;;;24.85;13.35;;;28.90;99.90;;;;;;1848556;76;21128;-84
2022/05/31 02:39:25;;;;;;;22.60;13.00;;;28.70;99.90;;;;;;1865887;77;21223;-82
2022/05/31 02:41:56;;;;;;;23.42;14.07;;;28.70;99.90;;;;;;1852695;75;21206;-86
2022/05/31 02:44:27;;;;;;;21.05;12.82;;;28.80;99.90;;;;;;1871019;76;21108;-85
2022/05/31 02:47:07;;;;;;;21.52;12.98;;;28.80;99.90;;;;;;1881457;75;21606;-85
2022/05/31 02:49:41;;;;;;;21.17;13.97;;;28.70;99.90;;;;;;1870416;75;21102;-85
2022/05/31 02:52:13;;;;;;;23.47;14.30;;;28.80;99.90;;;;;;1816732;78;21078;-84
2022/05/31 02:54:44;;;;;;;22.07;13.28;;;28.80;99.90;;;;;;1886872;74;21131;-84
2022/05/31 02:57:15;;;;;;;22.00;13.03;;;28.70;99.90;;;;;;1906208;74;21087;-84
2022/05/31 02:59:46;;;;;;;22.85;13.20;;;28.80;99.90;;;;;;1810295;77;21135;-85
2022/05/31 03:02:22;;;;;;;22.87;14.53;;;28.90;99.90;;;;;;1875876;74;21197;-87
2022/05/31 03:04:49;;;;;;;28.95;13.80;;;28.80;99.90;;;;;;1906960;74;21211;-87
2022/05/31 03:07:20;;;;;;;23.38;13.18;;;28.70;99.90;;;;;;1928668;74;21124;-85
2022/05/31 03:09:51;;;;;;;21.40;12.80;;;28.80;99.90;;;;;;1886815;75;21131;-86
2022/05/31 03:12:24;;;;;;;23.83;13.50;;;28.80;99.90;;;;;;1882376;76;21158;-85
2022/05/31 03:14:58;;;;;;;29.52;13.85;;;28.90;99.90;;;;;;1903629;75;21177;-86
2022/05/31 03:17:31;;;;;;;23.67;13.72;;;28.50;99.90;;;;;;1906950;74;21159;-86
2022/05/31 03:20:05;;;;;;;26.00;14.23;;;28.80;99.90;;;;;;1853175;77;21082;-86
2022/05/31 03:22:38;;;;;;;21.23;13.80;;;28.70;99.90;;;;;;1860262;76;21191;-85
2022/05/31 03:25:11;;;;;;;27.07;14.07;;;28.80;99.90;;;;;;1910186;74;21090;-85
2022/05/31 03:27:46;;;;;;;21.82;13.68;;;28.60;99.90;;;;;;1908069;74;21091;-85
2022/05/31 03:30:17;;;;;;;22.37;13.38;;;28.80;99.90;;;;;;1901466;74;21208;-85
2022/05/31 03:32:49;;;;;;;27.95;14.73;;;28.60;99.90;;;;;;1904408;75;21173;-86
2022/05/31 03:35:20;;;;;;;22.62;14.50;;;28.80;99.90;;;;;;1906614;75;21103;-85
2022/05/31 03:37:51;;;;;;;26.82;17.50;;;28.70;99.90;;;;;;1907256;75;21138;-85
2022/05/31 03:42:54;;;;;;;24.72;13.50;;;28.80;99.90;;;;;;1915123;74;21099;-86
2022/05/31 03:45:26;;;;;;;29.25;13.90;;;28.80;99.90;;;;;;1900883;75;21123;-85
2022/05/31 03:47:57;;;;;;;28.32;15.55;;;28.70;99.90;;;;;;1905174;75;21135;-86
2022/05/31 03:50:28;;;;;;;25.50;14.50;;;28.80;99.90;;;;;;1912242;74;21096;-84
2022/05/31 03:52:59;;;;;;;27.73;14.93;;;29.00;99.90;;;;;;1912049;74;21221;-84
2022/05/31 03:55:30;;;;;;;24.67;12.75;;;29.00;99.90;;;;;;1926131;74;21096;-85
2022/05/31 03:58:01;;;;;;;23.35;13.45;;;29.20;99.90;;;;;;1931337;74;21159;-85
2022/05/31 04:00:32;;;;;;;20.12;11.55;;;29.50;99.90;;;;;;1931685;74;21260;-85
2022/05/31 04:03:03;;;;;;;23.83;12.33;;;29.40;99.90;;;;;;1906936;74;21147;-86
2022/05/31 04:05:34;;;;;;;19.55;12.78;;;29.80;99.90;;;;;;1925311;74;21116;-86
2022/05/31 04:08:08;;;;;;;19.90;12.15;;;29.90;99.90;;;;;;1931441;74;21186;-84
2022/05/31 04:10:41;;;;;;;30.50;20.85;;;29.70;99.90;;;;;;1931480;74;21097;-85
2022/05/31 04:13:12;;;;;;;20.65;13.13;;;29.90;99.90;;;;;;1899360;75;21236;-83
2022/05/31 04:15:44;;;;;;;21.75;13.43;;;29.90;99.90;;;;;;1928705;74;21139;-85
2022/05/31 04:18:20;;;;;;;22.73;13.45;;;29.80;99.90;;;;;;1931838;74;21073;-84
2022/05/31 04:20:51;;;;;;;27.95;13.13;;;29.90;99.90;;;;;;1931584;74;21124;-86
2022/05/31 04:25:56;;;;;;;22.48;12.95;;;29.90;99.90;;;;;;1891184;74;21179;-85
2022/05/31 04:28:27;;;;;;;19.32;13.03;;;30.10;99.90;;;;;;1898019;75;21138;-85
2022/05/31 04:30:58;;;;;;;26.35;13.30;;;30.00;99.90;;;;;;1898592;75;21162;-86
2022/05/31 04:33:29;;;;;;;23.10;12.73;;;30.40;99.90;;;;;;1904339;75;21220;-86
2022/05/31 04:36:03;;;;;;;19.48;13.15;;;30.40;99.90;;;;;;1920659;74;21160;-86
2022/05/31 04:38:37;;;;;;;22.25;11.83;;;30.40;99.90;;;;;;1904708;75;22324;-85
2022/05/31 04:41:10;;;;;;;24.60;13.50;;;30.30;99.90;;;;;;1904804;75;21200;-86
2022/05/31 04:43:41;;;;;;;19.87;12.53;;;30.40;99.90;;;;;;1901470;74;21120;-87
2022/05/31 04:46:14;;;;;;;23.45;12.53;;;30.40;99.90;;;;;;1898677;75;22121;-87
2022/05/31 04:48:46;;;;;;;16.40;11.78;;;30.30;99.90;;;;;;1890002;74;21095;-84
2022/05/31 04:51:17;;;;;;;21.23;13.10;;;30.60;99.90;;;;;;1898776;73;21033;-85
2022/05/31 04:53:49;;;;;;;18.65;11.63;;;30.70;99.90;;;;;;1909821;74;21072;-85
2022/05/31 04:56:21;;;;;;;21.00;12.00;;;30.70;99.90;;;;;;1886102;75;21177;-83
2022/05/31 04:58:53;;;;;;;20.97;12.03;;;30.80;99.90;;;;;;1909599;75;21131;-85
2022/05/31 05:01:26;;;;;;;25.12;12.07;;;30.70;99.90;;;;;;1909159;75;21147;-85
2022/05/31 05:03:58;;;;;;;19.52;12.47;;;30.80;99.90;;;;;;1906874;74;21142;-86
2022/05/31 05:06:30;;;;;;;28.47;13.35;;;31.00;99.90;;;;;;1876560;76;21142;-84
2022/05/31 05:09:01;;;;;;;22.65;11.97;;;31.00;99.90;;;;;;1877714;76;21151;-86
2022/05/31 05:11:39;;;;;;;23.38;12.45;;;31.20;99.90;;;;;;1879707;75;21102;-87
2022/05/31 05:14:09;;;;;;;23.42;12.43;;;31.20;99.90;;;;;;1914682;74;21123;-87
2022/05/31 05:16:43;;;;;;;23.27;11.28;;;30.90;99.90;;;;;;1942231;74;21169;-87
2022/05/31 05:19:16;;;;;;;20.80;11.80;;;31.20;99.90;;;;;;1917711;74;21629;-86
2022/05/31 05:21:47;;;;;;;17.95;10.95;;;31.10;99.90;;;;;;1902894;75;21131;-86
2022/05/31 05:24:21;;;;;;;19.90;11.10;;;30.90;99.90;;;;;;1915361;74;21123;-86
2022/05/31 05:26:52;;;;;;;18.82;10.13;;;31.20;99.90;;;;;;1913141;74;21137;-88
2022/05/31 05:32:01;;;;;;;19.80;11.40;;;31.00;99.90;;;;;;1890323;76;21244;-86
2022/05/31 05:34:33;;;;;;;15.98;10.93;;;31.00;99.90;;;;;;1905754;75;21185;-85
2022/05/31 05:37:08;;;;;;;20.82;11.78;;;31.10;99.90;;;;;;1905732;75;21121;-85
2022/05/31 05:39:39;;;;;;;23.87;11.18;;;31.50;99.90;;;;;;1890582;75;21079;-86
2022/05/31 05:42:11;;;;;;;19.23;11.33;;;31.60;99.90;;;;;;1887669;76;21174;-87
2022/05/31 05:44:42;;;;;;;15.95;11.00;;;31.40;99.90;;;;;;1907836;74;21070;-89
2022/05/31 05:47:16;;;;;;;22.07;10.82;;;31.40;99.90;;;;;;1907851;75;21171;-86
2022/05/31 05:49:46;;;;;;;22.07;11.33;;;31.40;99.90;;;;;;1888897;74;21126;-87
2022/05/31 05:52:17;;;;;;;16.70;10.98;;;31.40;99.90;;;;;;1886691;75;21190;-87
2022/05/31 05:54:50;;;;;;;20.48;11.48;;;31.30;99.90;;;;;;1888522;74;21598;-86
2022/05/31 05:57:20;;;;;;;15.78;11.30;;;31.50;99.90;;;;;;1896320;74;21052;-85
2022/05/31 05:59:51;;;;;;;17.77;11.38;;;31.40;99.90;;;;;;1852534;77;21168;-85
2022/05/31 06:02:25;;;;;;;22.10;11.50;;;31.30;99.90;;;;;;1863257;74;21102;-86
2022/05/31 06:04:59;;;;;;;18.62;9.73;;;31.40;99.90;;;;;;1914067;74;21104;-87
2022/05/31 06:07:33;;;;;;;19.25;10.78;;;31.40;99.90;;;;;;1913748;74;21164;-85
2022/05/31 06:10:06;;;;;;;15.68;10.03;;;31.70;99.90;;;;;;1914348;75;21136;-86
2022/05/31 06:12:39;;;;;;;17.30;9.80;;;31.80;99.90;;;;;;1915413;74;21083;-85
2022/05/31 06:15:13;;;;;;;16.05;9.40;;;31.70;99.90;;;;;;1918530;74;21114;-87
2022/05/31 06:17:46;;;;;;;21.80;10.63;;;31.60;99.90;;;;;;1904663;74;21080;-86
2022/05/31 06:20:21;;;;;;;19.27;10.80;;;31.90;99.90;;;;;;1885165;76;21107;-87
2022/05/31 06:22:52;;;;;;;19.17;9.38;;;31.70;99.90;;;;;;1889493;74;21119;-88
2022/05/31 06:25:23;;;;;;;14.00;9.35;;;31.90;99.90;;;;;;1917702;74;21111;-86
2022/05/31 06:27:56;;;;;;;20.32;9.25;;;31.80;99.90;;;;;;1914284;74;21910;-86
2022/05/31 06:30:28;;;;;;;17.95;9.28;;;31.80;99.90;;;;;;1914658;75;21643;-86
2022/05/31 06:32:58;;;;;;;22.40;10.68;;;31.80;99.90;;;;;;1914551;75;21169;-85
2022/05/31 06:35:29;;;;;;;17.73;9.00;;;32.00;99.90;;;;;;1889834;75;21107;-84
2022/05/31 06:38:02;;;;;;;13.65;9.08;;;31.80;99.90;;;;;;1852928;76;21130;-88
2022/05/31 06:40:33;;;;;;;13.90;8.33;;;32.00;99.90;;;;;;1878206;76;21138;-86
2022/05/31 06:43:16;;;;;;;14.93;8.25;;;31.70;99.90;;;;;;1877233;75;21143;-86
2022/05/31 06:45:47;;;;;;;17.00;8.35;;;32.10;99.90;;;;;;1915473;74;21151;-86
2022/05/31 06:48:18;;;;;;;20.95;9.23;;;31.80;99.90;;;;;;1920354;74;21726;-86
2022/05/31 06:50:51;;;;;;;17.75;9.73;;;31.90;99.90;;;;;;1895810;74;21151;-85
2022/05/31 06:58:30;;;;;;;23.52;9.55;;;31.70;99.90;;;;;;1899941;74;21137;-86
2022/05/31 07:01:05;;;;;;;16.65;10.00;;;31.70;99.90;;;;;;1880029;76;21163;-87
2022/05/31 07:03:36;;;;;;;22.95;10.10;;;31.60;99.90;;;;;;1890635;75;21134;-87
2022/05/31 07:06:07;;;;;;;17.82;8.98;;;31.90;99.90;;;;;;1893221;74;21116;-86
2022/05/31 07:08:39;;;;;;;15.65;8.33;;;31.90;99.90;;;;;;1888355;75;21076;-84
2022/05/31 07:11:12;;;;;;;15.58;9.28;;;32.00;99.90;;;;;;1888578;75;21155;-84
2022/05/31 07:13:42;;;;;;;18.48;9.05;;;32.00;99.90;;;;;;1861579;76;21195;-88
2022/05/31 07:16:18;;;;;;;16.65;8.60;;;31.70;99.90;;;;;;1818582;77;21244;-86
2022/05/31 07:18:49;;;;;;;15.25;8.93;;;31.80;99.90;;;;;;1811885;78;21149;-87
2022/05/31 07:21:21;;;;;;;18.57;9.03;;;32.00;99.90;;;;;;1854161;75;21171;-86
2022/05/31 07:23:53;;;;;;;14.65;7.85;;;32.00;99.90;;;;;;1877152;75;21205;-86
2022/05/31 07:26:25;;;;;;;17.60;6.80;;;32.10;99.30;;;;;;1854591;75;21057;-85
2022/05/31 07:29:02;;;;;;;12.88;7.40;;;31.80;97.60;;;;;;1860057;75;21234;-85
2022/05/31 07:31:44;;;;;;;14.50;7.55;;;32.10;99.40;;;;;;1851225;77;21251;-87
2022/05/31 07:34:14;;;;;;;14.23;7.53;;;32.30;99.00;;;;;;1877291;75;21098;-86
2022/05/31 07:36:46;;;;;;;16.20;8.50;;;31.80;98.90;;;;;;1887725;75;21210;-85
2022/05/31 07:39:25;;;;;;;18.17;8.15;;;32.00;99.20;;;;;;1880392;75;21800;-83
2022/05/31 07:41:58;;;;;;;19.07;7.87;;;32.30;99.20;;;;;;1883924;75;21080;-84
2022/05/31 07:44:29;;;;;;;17.42;7.67;;;32.30;99.10;;;;;;1859391;76;21067;-85
2022/05/31 07:47:05;;;;;;;19.70;8.30;;;32.00;98.90;;;;;;1872055;75;21111;-88
2022/05/31 07:49:36;;;;;;;14.43;7.40;;;32.20;98.50;;;;;;1873819;75;21208;-85
2022/05/31 07:52:10;;;;;;;14.25;8.30;;;32.40;98.40;;;;;;1842463;76;21203;-86
2022/05/31 07:54:47;;;;;;;15.75;8.15;;;32.20;98.50;;;;;;1861142;76;21170;-85
2022/05/31 07:59:52;;;;;;;16.05;6.60;;;32.30;98.50;;;;;;1861363;76;21184;-86
2022/05/31 08:02:28;;;;;;;14.98;6.75;;;32.30;98.10;;;;;;1879421;75;21158;-86
2022/05/31 08:05:06;;;;;;;14.83;6.72;;;32.20;98.30;;;;;;1890135;76;21614;-87
2022/05/31 08:07:39;;;;;;;14.85;7.22;;;32.30;97.80;;;;;;1878528;76;21784;-87
2022/05/31 08:10:13;;;;;;;13.95;7.58;;;32.00;97.90;;;;;;1878961;76;21163;-87
2022/05/31 08:13:08;;;;;;;13.53;6.92;;;32.10;98.50;;;;;;1873118;75;21115;-87
2022/05/31 08:15:40;;;;;;;16.95;7.20;;;32.10;97.80;;;;;;1880363;75;21104;-85
2022/05/31 08:18:11;;;;;;;13.72;6.10;;;32.10;98.20;;;;;;1886025;75;21114;-85
2022/05/31 08:20:44;;;;;;;14.78;6.95;;;32.00;97.30;;;;;;1913704;73;21182;-86
2022/05/31 08:23:18;;;;;;;11.53;6.40;;;32.30;97.40;;;;;;1923086;73;21139;-76
2022/05/31 08:25:49;;;;;;;11.38;6.78;;;32.10;97.40;;;;;;1917268;73;21147;-75
2022/05/31 08:28:20;;;;;;;10.82;6.17;;;32.10;97.90;;;;;;1924658;73;21115;-74
2022/05/31 08:30:53;;;;;;;15.18;6.55;;;32.30;97.90;;;;;;1921663;73;21158;-74
2022/05/31 08:33:27;;;;;;;16.12;7.10;;;32.00;97.80;;;;;;1924521;73;21531;-79
2022/05/31 08:35:58;;;;;;;17.40;7.00;;;32.10;98.80;;;;;;1919166;73;21525;-75
2022/05/31 08:38:32;;;;;;;12.28;6.90;;;32.00;98.80;;;;;;1914447;73;21164;-75
2022/05/31 08:41:06;;;;;;;14.33;6.45;;;32.00;98.40;;;;;;1922994;73;21621;-76
2022/05/31 08:43:40;;;;;;;10.85;4.97;;;32.00;98.90;;;;;;1870659;75;21128;-75
2022/05/31 08:46:16;;;;;;;12.28;5.62;;;31.80;98.70;;;;;;1847508;76;21175;-76
2022/05/31 08:48:50;;;;;;;12.58;6.65;;;31.90;99.20;;;;;;1852755;76;21104;-74
2022/05/31 08:59:12;;;;;;;9.98;5.47;;;31.10;98.90;;;;;;1872463;75;21076;-76
2022/05/31 09:01:52;;;;;;;13.40;5.62;;;30.90;99.40;;;;;;1878897;75;21048;-75
2022/05/31 09:04:28;;;;;;;7.58;3.37;;;30.60;99.90;;;;;;1877239;75;21540;-76
2022/05/31 09:07:06;;;;;;;8.40;4.08;;;30.70;99.90;;;;;;1875450;75;21292;-74
2022/05/31 09:09:41;;;;;;;6.72;3.33;;;30.60;99.90;;;;;;1871832;76;21143;-78
2022/05/31 09:12:36;;;;;;;7.85;2.83;;;30.10;99.70;;;;;;1869002;75;21257;-76
2022/05/31 09:15:11;;;;;;;6.65;2.90;;;29.90;99.90;;;;;;1868825;75;21084;-78
2022/05/31 09:17:56;;;;;;;12.63;3.17;;;29.70;99.90;;;;;;1871240;76;21068;-75
2022/05/31 09:20:38;;;;;;;9.53;2.80;;;29.70;99.90;;;;;;1916866;73;21178;-76
2022/05/31 09:23:12;;;;;;;4.10;1.87;;;29.40;99.90;;;;;;1890669;74;21148;-75
2022/05/31 09:25:43;;;;;;;5.47;2.15;;;29.10;99.80;;;;;;1921569;73;21088;-75
2022/05/31 09:28:18;;;;;;;7.40;2.08;;;29.30;99.90;;;;;;1911698;73;21173;-75
2022/05/31 09:30:59;;;;;;;5.78;1.90;;;29.00;99.90;;;;;;1906207;73;21177;-76
2022/05/31 09:33:34;;;;;;;4.53;1.77;;;28.80;99.70;;;;;;1838564;76;21108;-74
2022/05/31 09:36:09;;;;;;;4.50;1.85;;;29.10;99.90;;;;;;1920232;73;21103;-74
2022/05/31 09:38:43;;;;;;;3.27;1.92;;;28.90;99.90;;;;;;1904357;73;21146;-74
2022/05/31 09:41:17;;;;;;;4.08;1.80;;;28.70;99.90;;;;;;1904833;73;21689;-74
2022/05/31 09:43:50;;;;;;;4.53;1.57;;;28.90;99.90;;;;;;1907616;73;21107;-74
2022/05/31 09:46:23;;;;;;;4.97;1.90;;;28.90;99.90;;;;;;1910850;73;21580;-72
2022/05/31 09:48:56;;;;;;;5.28;1.60;;;28.80;99.50;;;;;;1908437;73;21217;-73
2022/05/31 09:51:30;;;;;;;3.80;1.17;;;28.90;99.50;;;;;;1923921;73;21692;-73
2022/05/31 09:59:09;;;;;;;6.58;2.70;;;29.00;99.00;;;;;;1921238;73;21539;-74
2022/05/31 10:01:42;;;;;;;3.80;1.80;;;28.80;99.20;;;;;;1925381;73;21188;-74
2022/05/31 10:04:16;;;;;;;5.70;1.75;;;28.90;99.50;;;;;;1919002;73;21188;-74
2022/05/31 10:06:49;;;;;;;3.50;1.75;;;29.00;99.30;;;;;;1917204;73;21123;-76
2022/05/31 10:09:22;;;;;;;3.27;1.60;;;29.00;99.70;;;;;;1920867;72;21137;-75
2022/05/31 10:11:57;;;;;;;6.72;1.92;;;28.80;99.50;;;;;;1935653;73;21594;-74
2022/05/31 10:14:30;;;;;;;7.97;2.08;;;28.80;99.70;;;;;;1922763;74;21626;-73
2022/05/31 10:17:04;;;;;;;6.65;1.90;;;28.70;99.80;;;;;;1924799;74;21685;-73
2022/05/31 10:19:35;;;;;;;5.53;1.90;;;28.70;99.80;;;;;;1926781;73;21866;-74
2022/05/31 10:22:08;;;;;;;4.53;1.90;;;28.80;99.90;;;;;;1928122;73;21601;-73
2022/05/31 10:24:40;;;;;;;3.80;1.60;;;28.80;99.70;;;;;;1912796;74;21220;-74
2022/05/31 10:27:13;;;;;;;5.37;2.02;;;28.70;99.90;;;;;;1925708;73;21133;-75
2022/05/31 10:29:47;;;;;;;5.25;2.20;;;28.60;99.90;;;;;;1923230;74;21169;-76
2022/05/31 10:32:20;;;;;;;5.05;1.92;;;28.60;99.90;;;;;;1923645;73;21575;-75
2022/05/31 10:34:54;;;;;;;5.00;1.82;;;28.60;99.90;;;;;;1918566;73;21599;-75
2022/05/31 10:37:32;;;;;;;3.35;1.50;;;28.60;99.90;;;;;;1920459;74;21603;-75
2022/05/31 10:40:03;;;;;;;4.65;2.00;;;28.60;99.90;;;;;;1914885;74;21072;-74
2022/05/31 10:42:36;;;;;;;5.85;2.08;;;28.50;99.90;;;;;;1919759;73;21139;-76
2022/05/31 10:45:10;;;;;;;5.08;2.02;;;28.50;99.90;;;;;;1938158;73;21637;-74
2022/05/31 10:47:41;;;;;;;5.37;1.80;;;28.50;99.90;;;;;;1925068;73;21157;-76
2022/05/31 10:50:13;;;;;;;6.75;2.25;;;28.60;99.90;;;;;;1923781;73;21685;-75
2022/05/31 10:52:46;;;;;;;5.10;1.87;;;28.60;99.90;;;;;;1919603;73;21688;-76
2022/05/31 10:55:20;;;;;;;6.90;2.02;;;28.50;99.90;;;;;;1898943;75;21537;-76
2022/05/31 10:57:54;;;;;;;8.50;4.40;;;28.60;99.90;;;;;;1906340;74;21218;-75
2022/05/31 11:00:29;;;;;;;5.72;3.70;;;28.80;99.90;;;;;;1906402;75;21496;-74
2022/05/31 11:03:03;;;;;;;6.95;2.62;;;28.70;99.90;;;;;;1918721;73;21158;-86
2022/05/31 11:05:37;;;;;;;5.60;2.20;;;28.90;99.90;;;;;;1929628;74;21628;-85
2022/05/31 11:13:21;;;;;;;6.22;3.12;;;28.80;99.90;;;;;;1916811;73;21179;-83
2022/05/31 11:15:54;;;;;;;6.92;2.55;;;28.80;99.90;;;;;;1905357;74;21182;-85
2022/05/31 11:18:27;;;;;;;8.68;2.87;;;28.90;99.90;;;;;;1906580;73;21137;-86
2022/05/31 11:21:05;;;;;;;8.63;2.42;;;28.70;99.90;;;;;;1928928;73;21104;-85
2022/05/31 11:23:40;;;;;;;9.35;2.85;;;28.70;99.90;;;;;;1916966;73;21644;-84
2022/05/31 11:26:13;;;;;;;7.72;3.27;;;29.00;99.90;;;;;;1911731;73;21216;-85
2022/05/31 11:28:47;;;;;;;9.90;3.80;;;28.90;99.90;;;;;;1936716;74;21148;-85
2022/05/31 11:31:22;;;;;;;8.13;4.50;;;28.80;99.90;;;;;;1939129;74;21088;-84
2022/05/31 11:33:56;;;;;;;7.33;3.87;;;28.80;99.90;;;;;;1941897;73;21158;-82
2022/05/31 11:36:29;;;;;;;7.08;3.10;;;28.90;99.90;;;;;;1937213;73;21132;-85
2022/05/31 11:39:03;;;;;;;6.67;3.62;;;29.10;99.90;;;;;;1928827;73;21346;-82
2022/05/31 11:41:42;;;;;;;9.25;4.58;;;28.80;99.90;;;;;;1927625;71;21386;-82
2022/05/31 11:44:21;;;;;;;13.25;5.22;;;28.90;99.80;;;;;;1932024;73;21171;-81
2022/05/31 11:46:47;;;;;;;11.28;5.40;;;29.10;99.90;;;;;;1920619;73;21079;-84
2022/05/31 11:49:22;;;;;;;13.32;8.88;;;28.90;99.90;;;;;;1918462;73;21111;-83
2022/05/31 11:51:55;;;;;;;13.38;8.10;;;28.80;99.90;;;;;;1850054;76;21103;-82
2022/05/31 11:54:29;;;;;;;21.70;10.23;;;28.80;99.90;;;;;;1861359;74;21128;-86
2022/05/31 11:57:02;;;;;;;16.35;10.03;;;28.80;99.90;;;;;;1864311;77;21185;-86
2022/05/31 11:59:36;;;;;;;18.07;10.93;;;28.70;99.90;;;;;;1864643;76;21223;-86
2022/05/31 12:02:09;;;;;;;16.93;11.08;;;28.80;99.90;;;;;;1823365;76;21136;-85
2022/05/31 12:04:43;;;;;;;17.55;10.95;;;28.80;99.90;;;;;;1926144;73;21081;-84
2022/05/31 12:07:16;;;;;;;15.15;9.90;;;29.00;99.90;;;;;;1919600;73;21166;-88
2022/05/31 12:09:49;;;;;;;21.60;13.70;;;28.70;99.90;;;;;;1936619;73;21205;-86
2022/05/31 12:12:30;;;;;;;18.98;10.82;;;29.00;99.90;;;;;;1914067;73;21213;-86
2022/05/31 12:14:59;;;;;;;17.50;10.35;;;28.80;99.90;;;;;;1900766;73;21205;-86
2022/05/31 12:17:33;;;;;;;13.83;8.83;;;28.80;99.90;;;;;;1912085;73;21179;-87
2022/05/31 12:20:06;;;;;;;13.72;8.68;;;28.70;99.90;;;;;;1913477;75;21181;-83
2022/05/31 12:22:40;;;;;;;32.45;21.80;;;28.70;99.90;;;;;;1915676;73;21080;-84
2022/05/31 12:25:13;;;;;;;16.90;10.32;;;28.60;99.90;;;;;;1913391;74;21441;-86
2022/05/31 12:27:48;;;;;;;15.72;9.68;;;28.80;99.90;;;;;;1916243;74;21144;-86
2022/05/31 12:30:30;;;;;;;14.25;8.45;;;28.60;99.90;;;;;;1932841;74;21118;-86
2022/05/31 12:33:11;;;;;;;13.75;7.45;;;28.90;99.90;;;;;;1797908;79;21210;-85
2022/05/31 12:35:45;;;;;;;13.10;8.25;;;28.60;99.90;;;;;;1814485;77;21174;-86
2022/05/31 12:38:17;;;;;;;17.30;8.68;;;28.60;99.90;;;;;;1807607;78;21278;-86
2022/05/31 12:40:55;;;;;;;18.85;8.95;;;28.60;99.90;;;;;;1807329;78;21216;-86
2022/05/31 12:43:28;;;;;;;15.53;8.95;;;28.60;99.90;;;;;;1807009;78;21176;-88
2022/05/31 12:46:00;;;;;;;16.67;8.95;;;28.70;99.90;;;;;;1808398;79;21230;-87
2022/05/31 12:48:35;;;;;;;15.05;9.80;;;28.80;99.90;;;;;;1809192;79;21086;-87
2022/05/31 12:51:11;;;;;;;14.25;9.53;;;28.60;99.90;;;;;;1805656;79;21169;-86
2022/05/31 12:53:47;;;;;;;16.35;9.55;;;28.60;99.90;;;;;;1802960;78;21177;-85
2022/05/31 12:56:23;;;;;;;17.20;8.63;;;28.70;99.90;;;;;;1836407;77;21230;-85
2022/05/31 12:58:56;;;;;;;16.35;9.23;;;28.70;99.90;;;;;;1829489;78;21148;-85
2022/05/31 13:01:31;;;;;;;13.22;8.60;;;28.60;99.90;;;;;;1826953;77;21103;-82
2022/05/31 13:04:08;;;;;;;13.53;9.20;;;28.80;99.90;;;;;;1806093;79;21312;-82
2022/05/31 13:06:43;;;;;;;16.27;9.13;;;28.70;99.90;;;;;;1819709;78;21088;-82
2022/05/31 13:09:17;;;;;;;18.87;9.25;;;28.60;99.90;;;;;;1809673;79;21157;-84
2022/05/31 13:19:39;;;;;;;11.53;8.15;;;28.40;99.90;;;;;;1803511;78;21154;-85
2022/05/31 13:22:14;;;;;;;14.47;8.75;;;28.40;99.90;;;;;;1832395;78;21077;-85
2022/05/31 13:24:47;;;;;;;16.05;8.78;;;28.40;99.90;;;;;;1810830;78;21154;-83
2022/05/31 13:27:21;;;;;;;16.82;8.80;;;28.40;99.90;;;;;;1819776;78;21565;-84
2022/05/31 13:29:54;;;;;;;16.32;8.35;;;28.40;99.90;;;;;;1831106;78;21161;-85
2022/05/31 13:32:30;;;;;;;14.15;8.20;;;28.30;99.90;;;;;;1821943;77;21202;-85
2022/05/31 13:35:02;;;;;;;12.55;7.10;;;28.30;99.90;;;;;;1798777;75;21159;-86
2022/05/31 13:37:38;;;;;;;14.03;7.92;;;28.30;99.90;;;;;;1835945;76;21147;-84
2022/05/31 13:46:03;;;;;;;16.70;7.75;;;28.40;99.90;;;;;;1842823;78;21146;-86
2022/05/31 13:48:36;;;;;;;13.80;7.67;;;28.40;99.90;;;;;;1844438;77;21167;-87
2022/05/31 13:51:13;;;;;;;13.00;7.10;;;28.30;99.90;;;;;;1789878;79;21257;-85
2022/05/31 13:53:44;;;;;;;14.68;8.28;;;28.30;99.90;;;;;;1763688;79;21182;-86